sensor_id;sensor_type;location;lat;lon;timestamp;temperature;humidity
20498;DHT22;10407;53.238;10.448;2023-07-13T00:00:29;19.60;99.90
20498;DHT22;10407;53.238;10.448;2023-07-13T00:02:58;19.80;99.90
20498;DHT22;10407;53.238;10.448;2023-07-13T00:05:26;19.60;99.90
20498;DHT22;10407;53.238;10.448;2023-07-13T00:07:53;19.60;99.90
20498;DHT22;10407;53.238;10.448;2023-07-13T00:10:22;19.70;99.90
20498;DHT22;10407;53.238;10.448;2023-07-13T00:12:49;19.40;99.90
20498;DHT22;10407;53.238;10.448;2023-07-13T00:15:20;19.40;99.90
20498;DHT22;10407;53.238;10.448;2023-07-13T00:17:50;19.70;99.90
20498;DHT22;10407;53.238;10.448;2023-07-13T00:20:18;19.60;99.90
20498;DHT22;10407;53.238;10.448;2023-07-13T00:22:48;19.60;99.90
20498;DHT22;10407;53.238;10.448;2023-07-13T00:25:22;19.40;99.90
20498;DHT22;10407;53.238;10.448;2023-07-13T00:27:51;19.50;99.90
20498;DHT22;10407;53.238;10.448;2023-07-13T00:30:19;19.50;99.90
20498;DHT22;10407;53.238;10.448;2023-07-13T00:32:47;19.60;99.90
20498;DHT22;10407;53.238;10.448;2023-07-13T00:35:15;19.40;99.90
20498;DHT22;10407;53.238;10.448;2023-07-13T00:37:43;19.40;99.90
20498;DHT22;10407;53.238;10.448;2023-07-13T00:40:12;19.40;99.90
20498;DHT22;10407;53.238;10.448;2023-07-13T00:42:41;19.30;99.90
20498;DHT22;10407;53.238;10.448;2023-07-13T00:47:42;19.10;99.90
20498;DHT22;10407;53.238;10.448;2023-07-13T00:50:13;19.10;99.90
20498;DHT22;10407;53.238;10.448;2023-07-13T00:52:43;19.20;99.90
20498;DHT22;10407;53.238;10.448;2023-07-13T00:55:13;19.20;99.90
20498;DHT22;10407;53.238;10.448;2023-07-13T00:57:41;19.10;99.90
20498;DHT22;10407;53.238;10.448;2023-07-13T01:00:10;19.00;99.90
20498;DHT22;10407;53.238;10.448;2023-07-13T01:02:41;18.90;99.90
20498;DHT22;10407;53.238;10.448;2023-07-13T01:05:18;18.80;99.90
20498;DHT22;10407;53.238;10.448;2023-07-13T01:07:47;18.90;99.90
20498;DHT22;10407;53.238;10.448;2023-07-13T01:10:15;18.80;99.90
20498;DHT22;10407;53.238;10.448;2023-07-13T01:12:43;18.70;99.90
20498;DHT22;10407;53.238;10.448;2023-07-13T01:15:36;18.60;99.90
20498;DHT22;10407;53.238;10.448;2023-07-13T01:18:01;18.50;99.90
20498;DHT22;10407;53.238;10.448;2023-07-13T01:20:29;18.50;99.90
20498;DHT22;10407;53.238;10.448;2023-07-13T01:22:58;18.50;99.90
20498;DHT22;10407;53.238;10.448;2023-07-13T01:25:26;18.30;99.90
20498;DHT22;10407;53.238;10.448;2023-07-13T01:27:53;18.20;99.90
20498;DHT22;10407;53.238;10.448;2023-07-13T01:30:21;18.30;99.90
20498;DHT22;10407;53.238;10.448;2023-07-13T01:32:48;18.30;99.90
20498;DHT22;10407;53.238;10.448;2023-07-13T01:35:16;18.20;99.90
20498;DHT22;10407;53.238;10.448;2023-07-13T01:37:43;18.20;99.90
20498;DHT22;10407;53.238;10.448;2023-07-13T01:40:12;18.30;99.90
20498;DHT22;10407;53.238;10.448;2023-07-13T01:42:41;18.20;99.90
20498;DHT22;10407;53.238;10.448;2023-07-13T01:45:08;18.20;99.90
20498;DHT22;10407;53.238;10.448;2023-07-13T01:47:36;18.30;99.90
20498;DHT22;10407;53.238;10.448;2023-07-13T01:50:04;18.20;99.90
20498;DHT22;10407;53.238;10.448;2023-07-13T01:52:31;18.10;99.90
20498;DHT22;10407;53.238;10.448;2023-07-13T01:54:59;18.10;99.90
20498;DHT22;10407;53.238;10.448;2023-07-13T01:57:26;18.00;99.90
20498;DHT22;10407;53.238;10.448;2023-07-13T02:03:16;18.10;99.90
20498;DHT22;10407;53.238;10.448;2023-07-13T02:05:45;18.00;99.90
20498;DHT22;10407;53.238;10.448;2023-07-13T02:08:12;18.00;99.90
20498;DHT22;10407;53.238;10.448;2023-07-13T02:10:40;17.70;99.90
20498;DHT22;10407;53.238;10.448;2023-07-13T02:13:07;17.80;99.90
20498;DHT22;10407;53.238;10.448;2023-07-13T02:15:39;17.90;99.90
20498;DHT22;10407;53.238;10.448;2023-07-13T02:18:07;18.00;99.90
20498;DHT22;10407;53.238;10.448;2023-07-13T02:20:35;17.70;99.90
20498;DHT22;10407;53.238;10.448;2023-07-13T02:23:03;17.80;99.90
20498;DHT22;10407;53.238;10.448;2023-07-13T02:25:30;17.80;99.90
20498;DHT22;10407;53.238;10.448;2023-07-13T02:27:58;17.90;99.90
20498;DHT22;10407;53.238;10.448;2023-07-13T02:30:26;17.70;99.90
20498;DHT22;10407;53.238;10.448;2023-07-13T02:36:18;17.60;99.90
20498;DHT22;10407;53.238;10.448;2023-07-13T02:38:46;17.70;99.90
20498;DHT22;10407;53.238;10.448;2023-07-13T02:41:14;17.70;99.90
20498;DHT22;10407;53.238;10.448;2023-07-13T02:43:41;17.50;99.90
20498;DHT22;10407;53.238;10.448;2023-07-13T02:46:09;17.50;99.90
20498;DHT22;10407;53.238;10.448;2023-07-13T02:48:37;17.50;99.90
20498;DHT22;10407;53.238;10.448;2023-07-13T02:51:06;17.50;99.90
20498;DHT22;10407;53.238;10.448;2023-07-13T02:53:34;17.50;99.90
20498;DHT22;10407;53.238;10.448;2023-07-13T02:56:03;17.60;99.90
20498;DHT22;10407;53.238;10.448;2023-07-13T02:58:31;17.60;99.90
20498;DHT22;10407;53.238;10.448;2023-07-13T03:00:58;17.60;99.90
20498;DHT22;10407;53.238;10.448;2023-07-13T03:03:27;17.50;99.90
20498;DHT22;10407;53.238;10.448;2023-07-13T03:05:59;17.50;99.90
20498;DHT22;10407;53.238;10.448;2023-07-13T03:08:28;17.50;99.90
20498;DHT22;10407;53.238;10.448;2023-07-13T03:11:03;17.50;99.90
20498;DHT22;10407;53.238;10.448;2023-07-13T03:13:31;17.40;99.90
20498;DHT22;10407;53.238;10.448;2023-07-13T03:15:59;17.30;99.90
20498;DHT22;10407;53.238;10.448;2023-07-13T03:18:28;17.50;99.90
20498;DHT22;10407;53.238;10.448;2023-07-13T03:20:55;17.50;99.90
20498;DHT22;10407;53.238;10.448;2023-07-13T03:23:23;17.70;99.90
20498;DHT22;10407;53.238;10.448;2023-07-13T03:26:12;17.80;99.90
20498;DHT22;10407;53.238;10.448;2023-07-13T03:28:41;17.80;99.90
20498;DHT22;10407;53.238;10.448;2023-07-13T03:31:19;17.70;99.90
20498;DHT22;10407;53.238;10.448;2023-07-13T03:33:42;17.70;99.90
20498;DHT22;10407;53.238;10.448;2023-07-13T03:36:13;17.80;99.90
20498;DHT22;10407;53.238;10.448;2023-07-13T03:38:41;17.70;99.90
20498;DHT22;10407;53.238;10.448;2023-07-13T03:41:08;17.90;99.90
20498;DHT22;10407;53.238;10.448;2023-07-13T03:43:36;17.90;99.90
20498;DHT22;10407;53.238;10.448;2023-07-13T03:46:03;17.90;99.90
20498;DHT22;10407;53.238;10.448;2023-07-13T03:48:31;17.90;99.90
20498;DHT22;10407;53.238;10.448;2023-07-13T03:50:58;17.90;99.90
20498;DHT22;10407;53.238;10.448;2023-07-13T03:53:26;18.00;99.90
20498;DHT22;10407;53.238;10.448;2023-07-13T03:55:54;18.70;99.90
20498;DHT22;10407;53.238;10.448;2023-07-13T03:58:33;19.50;99.90
20498;DHT22;10407;53.238;10.448;2023-07-13T04:01:02;20.20;99.90
20498;DHT22;10407;53.238;10.448;2023-07-13T04:03:30;20.90;99.90
20498;DHT22;10407;53.238;10.448;2023-07-13T04:06:00;21.40;97.10
20498;DHT22;10407;53.238;10.448;2023-07-13T04:08:33;22.00;94.20
20498;DHT22;10407;53.238;10.448;2023-07-13T04:10:58;22.40;91.40
20498;DHT22;10407;53.238;10.448;2023-07-13T04:13:26;22.60;90.70
20498;DHT22;10407;53.238;10.448;2023-07-13T04:15:54;23.10;86.00
20498;DHT22;10407;53.238;10.448;2023-07-13T04:18:22;23.60;80.80
20498;DHT22;10407;53.238;10.448;2023-07-13T04:20:50;23.90;79.00
20498;DHT22;10407;53.238;10.448;2023-07-13T04:23:18;23.90;76.90
20498;DHT22;10407;53.238;10.448;2023-07-13T04:25:47;24.40;72.90
20498;DHT22;10407;53.238;10.448;2023-07-13T04:28:16;24.90;67.90
20498;DHT22;10407;53.238;10.448;2023-07-13T04:30:46;25.10;65.10
20498;DHT22;10407;53.238;10.448;2023-07-13T04:33:14;25.50;61.50
20498;DHT22;10407;53.238;10.448;2023-07-13T04:35:46;25.70;59.70
20498;DHT22;10407;53.238;10.448;2023-07-13T04:38:13;26.10;57.10
20498;DHT22;10407;53.238;10.448;2023-07-13T04:40:46;26.10;54.80
20498;DHT22;10407;53.238;10.448;2023-07-13T04:43:13;26.50;54.10
20498;DHT22;10407;53.238;10.448;2023-07-13T04:45:41;25.90;54.70
20498;DHT22;10407;53.238;10.448;2023-07-13T04:48:09;25.90;55.20
20498;DHT22;10407;53.238;10.448;2023-07-13T04:50:37;25.80;55.00
20498;DHT22;10407;53.238;10.448;2023-07-13T04:53:05;27.60;50.10
20498;DHT22;10407;53.238;10.448;2023-07-13T04:55:33;27.10;46.80
20498;DHT22;10407;53.238;10.448;2023-07-13T04:58:00;26.40;49.00
20498;DHT22;10407;53.238;10.448;2023-07-13T05:00:29;27.10;46.30
20498;DHT22;10407;53.238;10.448;2023-07-13T05:02:58;27.40;46.10
20498;DHT22;10407;53.238;10.448;2023-07-13T05:05:26;27.90;43.30
20498;DHT22;10407;53.238;10.448;2023-07-13T05:07:54;27.70;41.50
20498;DHT22;10407;53.238;10.448;2023-07-13T05:10:22;27.20;44.30
20498;DHT22;10407;53.238;10.448;2023-07-13T05:12:50;29.00;37.60
20498;DHT22;10407;53.238;10.448;2023-07-13T05:15:20;29.00;34.40
20498;DHT22;10407;53.238;10.448;2023-07-13T05:17:48;29.60;32.40
20498;DHT22;10407;53.238;10.448;2023-07-13T05:20:16;29.30;31.50
20498;DHT22;10407;53.238;10.448;2023-07-13T05:22:45;29.00;32.00
20498;DHT22;10407;53.238;10.448;2023-07-13T05:25:14;29.50;29.90
20498;DHT22;10407;53.238;10.448;2023-07-13T05:27:42;29.60;28.00
20498;DHT22;10407;53.238;10.448;2023-07-13T05:30:11;29.70;26.40
20498;DHT22;10407;53.238;10.448;2023-07-13T05:32:39;29.90;24.90
20498;DHT22;10407;53.238;10.448;2023-07-13T05:35:07;30.40;24.40
20498;DHT22;10407;53.238;10.448;2023-07-13T05:37:34;30.30;23.40
20498;DHT22;10407;53.238;10.448;2023-07-13T05:40:02;30.80;22.90
20498;DHT22;10407;53.238;10.448;2023-07-13T05:42:30;30.40;22.90
20498;DHT22;10407;53.238;10.448;2023-07-13T05:45:00;31.00;21.50
20498;DHT22;10407;53.238;10.448;2023-07-13T05:47:28;30.40;21.60
20498;DHT22;10407;53.238;10.448;2023-07-13T05:49:55;31.20;18.80
20498;DHT22;10407;53.238;10.448;2023-07-13T05:52:22;30.80;20.40
20498;DHT22;10407;53.238;10.448;2023-07-13T05:54:50;31.30;19.10
20498;DHT22;10407;53.238;10.448;2023-07-13T05:57:17;31.60;17.50
20498;DHT22;10407;53.238;10.448;2023-07-13T05:59:45;30.50;19.10
20498;DHT22;10407;53.238;10.448;2023-07-13T06:02:14;29.80;20.80
20498;DHT22;10407;53.238;10.448;2023-07-13T06:04:42;29.50;20.40
20498;DHT22;10407;53.238;10.448;2023-07-13T06:07:09;30.20;22.50
20498;DHT22;10407;53.238;10.448;2023-07-13T06:09:37;29.60;23.60
20498;DHT22;10407;53.238;10.448;2023-07-13T06:12:10;29.50;24.40
20498;DHT22;10407;53.238;10.448;2023-07-13T06:14:34;29.70;23.60
20498;DHT22;10407;53.238;10.448;2023-07-13T06:17:02;28.60;23.70
20498;DHT22;10407;53.238;10.448;2023-07-13T06:19:30;27.60;25.20
20498;DHT22;10407;53.238;10.448;2023-07-13T06:21:57;27.90;24.90
20498;DHT22;10407;53.238;10.448;2023-07-13T06:24:25;28.40;25.50
20498;DHT22;10407;53.238;10.448;2023-07-13T06:26:53;30.60;23.00
20498;DHT22;10407;53.238;10.448;2023-07-13T06:29:20;30.80;20.20
20498;DHT22;10407;53.238;10.448;2023-07-13T06:31:48;30.60;21.70
20498;DHT22;10407;53.238;10.448;2023-07-13T06:34:15;31.00;19.80
20498;DHT22;10407;53.238;10.448;2023-07-13T06:36:43;29.70;23.10
20498;DHT22;10407;53.238;10.448;2023-07-13T06:39:11;30.30;23.20
20498;DHT22;10407;53.238;10.448;2023-07-13T06:41:39;28.60;25.30
20498;DHT22;10407;53.238;10.448;2023-07-13T06:44:06;27.50;28.20
20498;DHT22;10407;53.238;10.448;2023-07-13T06:46:34;27.20;31.30
20498;DHT22;10407;53.238;10.448;2023-07-13T06:49:01;26.20;32.70
20498;DHT22;10407;53.238;10.448;2023-07-13T06:51:29;26.40;37.10
20498;DHT22;10407;53.238;10.448;2023-07-13T06:53:56;26.50;34.90
20498;DHT22;10407;53.238;10.448;2023-07-13T06:56:24;26.90;31.40
20498;DHT22;10407;53.238;10.448;2023-07-13T06:58:51;28.20;31.60
20498;DHT22;10407;53.238;10.448;2023-07-13T07:01:19;28.80;29.50
20498;DHT22;10407;53.238;10.448;2023-07-13T07:03:46;29.60;27.40
20498;DHT22;10407;53.238;10.448;2023-07-13T07:06:17;29.00;28.50
20498;DHT22;10407;53.238;10.448;2023-07-13T07:08:46;28.60;28.90
20498;DHT22;10407;53.238;10.448;2023-07-13T07:11:19;27.70;30.00
20498;DHT22;10407;53.238;10.448;2023-07-13T07:13:49;27.30;33.50
20498;DHT22;10407;53.238;10.448;2023-07-13T07:16:18;27.20;32.40
20498;DHT22;10407;53.238;10.448;2023-07-13T07:18:46;26.50;33.10
20498;DHT22;10407;53.238;10.448;2023-07-13T07:21:14;26.40;34.60
20498;DHT22;10407;53.238;10.448;2023-07-13T07:23:42;26.40;35.50
20498;DHT22;10407;53.238;10.448;2023-07-13T07:26:10;26.70;36.00
20498;DHT22;10407;53.238;10.448;2023-07-13T07:28:38;27.70;33.90
20498;DHT22;10407;53.238;10.448;2023-07-13T07:31:05;26.70;35.20
20498;DHT22;10407;53.238;10.448;2023-07-13T07:33:33;25.90;35.20
20498;DHT22;10407;53.238;10.448;2023-07-13T07:36:02;25.20;37.40
20498;DHT22;10407;53.238;10.448;2023-07-13T07:38:29;25.50;40.90
20498;DHT22;10407;53.238;10.448;2023-07-13T07:40:57;25.60;39.30
20498;DHT22;10407;53.238;10.448;2023-07-13T07:43:24;25.40;39.10
20498;DHT22;10407;53.238;10.448;2023-07-13T07:45:52;25.30;39.50
20498;DHT22;10407;53.238;10.448;2023-07-13T07:48:19;24.90;40.90
20498;DHT22;10407;53.238;10.448;2023-07-13T07:50:48;25.00;42.60
20498;DHT22;10407;53.238;10.448;2023-07-13T07:53:16;25.50;44.50
20498;DHT22;10407;53.238;10.448;2023-07-13T07:55:44;24.90;41.20
20498;DHT22;10407;53.238;10.448;2023-07-13T07:58:12;24.00;46.20
20498;DHT22;10407;53.238;10.448;2023-07-13T08:00:39;24.50;47.80
20498;DHT22;10407;53.238;10.448;2023-07-13T08:03:07;25.20;47.30
20498;DHT22;10407;53.238;10.448;2023-07-13T08:05:36;25.50;43.90
20498;DHT22;10407;53.238;10.448;2023-07-13T08:08:04;24.90;46.60
20498;DHT22;10407;53.238;10.448;2023-07-13T08:10:34;25.20;46.50
20498;DHT22;10407;53.238;10.448;2023-07-13T08:13:01;25.50;44.00
20498;DHT22;10407;53.238;10.448;2023-07-13T08:15:29;24.60;44.60
20498;DHT22;10407;53.238;10.448;2023-07-13T08:17:56;25.60;46.40
20498;DHT22;10407;53.238;10.448;2023-07-13T08:20:24;27.10;43.80
20498;DHT22;10407;53.238;10.448;2023-07-13T08:22:51;26.60;40.10
20498;DHT22;10407;53.238;10.448;2023-07-13T08:25:19;26.40;38.90
20498;DHT22;10407;53.238;10.448;2023-07-13T08:27:47;25.90;40.40
20498;DHT22;10407;53.238;10.448;2023-07-13T08:30:14;25.80;40.70
20498;DHT22;10407;53.238;10.448;2023-07-13T08:32:42;26.20;40.20
20498;DHT22;10407;53.238;10.448;2023-07-13T08:35:09;25.40;40.00
20498;DHT22;10407;53.238;10.448;2023-07-13T08:37:37;26.80;37.80
20498;DHT22;10407;53.238;10.448;2023-07-13T08:40:07;27.60;37.00
20498;DHT22;10407;53.238;10.448;2023-07-13T08:42:42;26.70;36.70
20498;DHT22;10407;53.238;10.448;2023-07-13T08:45:14;27.60;37.60
20498;DHT22;10407;53.238;10.448;2023-07-13T08:47:46;27.80;35.70
20498;DHT22;10407;53.238;10.448;2023-07-13T08:50:15;28.40;32.50
20498;DHT22;10407;53.238;10.448;2023-07-13T08:52:44;27.80;30.00
20498;DHT22;10407;53.238;10.448;2023-07-13T08:55:18;27.20;30.30
20498;DHT22;10407;53.238;10.448;2023-07-13T08:57:45;26.90;31.60
20498;DHT22;10407;53.238;10.448;2023-07-13T09:00:14;26.30;32.50
20498;DHT22;10407;53.238;10.448;2023-07-13T09:05:22;26.10;33.10
20498;DHT22;10407;53.238;10.448;2023-07-13T09:08:04;26.50;33.20
20498;DHT22;10407;53.238;10.448;2023-07-13T09:10:43;26.30;33.60
20498;DHT22;10407;53.238;10.448;2023-07-13T09:15:53;26.30;33.00
20498;DHT22;10407;53.238;10.448;2023-07-13T09:18:28;25.90;33.70
20498;DHT22;10407;53.238;10.448;2023-07-13T09:21:15;25.80;34.80
20498;DHT22;10407;53.238;10.448;2023-07-13T09:23:42;25.80;34.90
20498;DHT22;10407;53.238;10.448;2023-07-13T09:26:18;27.10;34.60
20498;DHT22;10407;53.238;10.448;2023-07-13T09:28:55;27.30;31.80
20498;DHT22;10407;53.238;10.448;2023-07-13T09:31:28;27.00;32.20
20498;DHT22;10407;53.238;10.448;2023-07-13T09:33:56;27.20;32.20
20498;DHT22;10407;53.238;10.448;2023-07-13T09:41:51;28.20;27.00
20498;DHT22;10407;53.238;10.448;2023-07-13T09:44:27;27.50;28.80
20498;DHT22;10407;53.238;10.448;2023-07-13T09:46:53;27.60;29.30
20498;DHT22;10407;53.238;10.448;2023-07-13T09:49:33;27.40;28.00
20498;DHT22;10407;53.238;10.448;2023-07-13T09:52:05;27.30;28.70
20498;DHT22;10407;53.238;10.448;2023-07-13T09:54:35;27.20;27.60
20498;DHT22;10407;53.238;10.448;2023-07-13T09:57:15;26.00;30.10
20498;DHT22;10407;53.238;10.448;2023-07-13T10:02:58;25.60;31.30
20498;DHT22;10407;53.238;10.448;2023-07-13T10:05:26;24.30;32.80
20498;DHT22;10407;53.238;10.448;2023-07-13T10:07:55;24.70;36.00
20498;DHT22;10407;53.238;10.448;2023-07-13T10:10:23;25.10;37.50
20498;DHT22;10407;53.238;10.448;2023-07-13T10:12:51;25.70;38.10
20498;DHT22;10407;53.238;10.448;2023-07-13T10:15:23;25.60;37.80
20498;DHT22;10407;53.238;10.448;2023-07-13T10:17:54;26.00;37.80
20498;DHT22;10407;53.238;10.448;2023-07-13T10:20:26;26.80;37.00
20498;DHT22;10407;53.238;10.448;2023-07-13T10:23:05;26.60;35.70
20498;DHT22;10407;53.238;10.448;2023-07-13T10:25:37;26.80;36.40
20498;DHT22;10407;53.238;10.448;2023-07-13T10:28:25;27.60;34.30
20498;DHT22;10407;53.238;10.448;2023-07-13T10:30:42;27.70;32.30
20498;DHT22;10407;53.238;10.448;2023-07-13T10:33:12;27.40;29.90
20498;DHT22;10407;53.238;10.448;2023-07-13T10:35:43;26.60;32.40
20498;DHT22;10407;53.238;10.448;2023-07-13T10:38:24;27.60;31.00
20498;DHT22;10407;53.238;10.448;2023-07-13T10:41:03;27.90;29.20
20498;DHT22;10407;53.238;10.448;2023-07-13T10:43:40;27.70;29.20
20498;DHT22;10407;53.238;10.448;2023-07-13T10:46:07;27.50;28.50
20498;DHT22;10407;53.238;10.448;2023-07-13T10:48:36;27.60;27.80
20498;DHT22;10407;53.238;10.448;2023-07-13T10:51:06;27.80;28.00
20498;DHT22;10407;53.238;10.448;2023-07-13T10:53:36;28.20;27.40
20498;DHT22;10407;53.238;10.448;2023-07-13T10:56:28;27.90;26.70
20498;DHT22;10407;53.238;10.448;2023-07-13T10:59:14;28.00;26.20
20498;DHT22;10407;53.238;10.448;2023-07-13T11:01:51;27.80;26.60
20498;DHT22;10407;53.238;10.448;2023-07-13T11:04:19;27.40;23.80
20498;DHT22;10407;53.238;10.448;2023-07-13T11:06:50;27.60;24.60
20498;DHT22;10407;53.238;10.448;2023-07-13T11:09:31;28.10;24.10
20498;DHT22;10407;53.238;10.448;2023-07-13T11:11:48;28.80;23.90
20498;DHT22;10407;53.238;10.448;2023-07-13T11:14:31;28.70;22.20
20498;DHT22;10407;53.238;10.448;2023-07-13T11:16:59;28.60;21.60
20498;DHT22;10407;53.238;10.448;2023-07-13T11:19:37;29.40;21.40
20498;DHT22;10407;53.238;10.448;2023-07-13T11:24:58;28.40;21.70
20498;DHT22;10407;53.238;10.448;2023-07-13T11:30:21;28.10;22.00
20498;DHT22;10407;53.238;10.448;2023-07-13T11:32:45;28.70;21.50
20498;DHT22;10407;53.238;10.448;2023-07-13T11:35:24;29.10;20.50
20498;DHT22;10407;53.238;10.448;2023-07-13T11:37:53;29.10;20.50
20498;DHT22;10407;53.238;10.448;2023-07-13T11:40:22;28.10;19.70
20498;DHT22;10407;53.238;10.448;2023-07-13T11:49:45;27.30;17.60
20498;DHT22;10407;53.238;10.448;2023-07-13T11:52:21;27.30;19.30
20498;DHT22;10407;53.238;10.448;2023-07-13T11:54:54;27.90;20.20
20498;DHT22;10407;53.238;10.448;2023-07-13T12:00:09;26.90;19.30
20498;DHT22;10407;53.238;10.448;2023-07-13T12:02:39;27.50;20.10
20498;DHT22;10407;53.238;10.448;2023-07-13T12:05:11;28.50;19.90
20498;DHT22;10407;53.238;10.448;2023-07-13T12:07:39;28.10;18.80
20498;DHT22;10407;53.238;10.448;2023-07-13T12:10:24;28.00;17.40
20498;DHT22;10407;53.238;10.448;2023-07-13T12:13:04;27.10;16.70
20498;DHT22;10407;53.238;10.448;2023-07-13T12:15:37;27.50;18.50
20498;DHT22;10407;53.238;10.448;2023-07-13T12:18:39;27.90;18.50
20498;DHT22;10407;53.238;10.448;2023-07-13T12:20:40;27.60;15.20
20498;DHT22;10407;53.238;10.448;2023-07-13T12:23:28;27.10;17.60
20498;DHT22;10407;53.238;10.448;2023-07-13T12:25:52;26.70;16.30
20498;DHT22;10407;53.238;10.448;2023-07-13T12:28:32;26.80;18.90
20498;DHT22;10407;53.238;10.448;2023-07-13T12:31:02;27.10;17.30
20498;DHT22;10407;53.238;10.448;2023-07-13T12:33:31;27.00;17.00
20498;DHT22;10407;53.238;10.448;2023-07-13T12:36:04;27.00;17.50
20498;DHT22;10407;53.238;10.448;2023-07-13T12:38:33;27.00;18.00
20498;DHT22;10407;53.238;10.448;2023-07-13T12:41:01;27.10;18.60
20498;DHT22;10407;53.238;10.448;2023-07-13T12:43:33;27.00;19.10
20498;DHT22;10407;53.238;10.448;2023-07-13T12:46:14;26.60;19.90
20498;DHT22;10407;53.238;10.448;2023-07-13T12:48:42;26.60;19.60
20498;DHT22;10407;53.238;10.448;2023-07-13T12:51:13;26.50;19.70
20498;DHT22;10407;53.238;10.448;2023-07-13T12:53:49;26.50;20.20
20498;DHT22;10407;53.238;10.448;2023-07-13T12:56:22;26.60;20.20
20498;DHT22;10407;53.238;10.448;2023-07-13T12:58:58;26.40;20.80
20498;DHT22;10407;53.238;10.448;2023-07-13T13:01:29;26.30;21.70
20498;DHT22;10407;53.238;10.448;2023-07-13T13:03:56;26.00;21.70
20498;DHT22;10407;53.238;10.448;2023-07-13T13:06:28;25.70;23.10
20498;DHT22;10407;53.238;10.448;2023-07-13T13:08:58;25.30;24.50
20498;DHT22;10407;53.238;10.448;2023-07-13T13:11:28;24.70;28.70
20498;DHT22;10407;53.238;10.448;2023-07-13T13:13:56;24.20;36.90
20498;DHT22;10407;53.238;10.448;2023-07-13T13:19:01;23.60;40.60
20498;DHT22;10407;53.238;10.448;2023-07-13T13:21:29;23.30;46.30
20498;DHT22;10407;53.238;10.448;2023-07-13T13:23:57;23.00;53.80
20498;DHT22;10407;53.238;10.448;2023-07-13T13:26:25;22.60;66.80
20498;DHT22;10407;53.238;10.448;2023-07-13T13:28:53;22.60;78.10
20498;DHT22;10407;53.238;10.448;2023-07-13T13:31:20;22.70;84.30
20498;DHT22;10407;53.238;10.448;2023-07-13T13:33:48;22.90;90.90
20498;DHT22;10407;53.238;10.448;2023-07-13T13:36:17;22.70;92.40
20498;DHT22;10407;53.238;10.448;2023-07-13T13:38:45;22.70;95.10
20498;DHT22;10407;53.238;10.448;2023-07-13T13:41:14;23.30;96.50
20498;DHT22;10407;53.238;10.448;2023-07-13T13:43:43;23.20;96.50
20498;DHT22;10407;53.238;10.448;2023-07-13T13:46:15;23.10;97.90
20498;DHT22;10407;53.238;10.448;2023-07-13T13:48:43;23.40;95.60
20498;DHT22;10407;53.238;10.448;2023-07-13T13:51:19;23.70;94.20
20498;DHT22;10407;53.238;10.448;2023-07-13T13:53:47;24.10;90.00
20498;DHT22;10407;53.238;10.448;2023-07-13T13:56:15;24.30;88.70
20498;DHT22;10407;53.238;10.448;2023-07-13T13:58:45;24.30;90.00
20498;DHT22;10407;53.238;10.448;2023-07-13T14:01:16;24.40;86.70
20498;DHT22;10407;53.238;10.448;2023-07-13T14:03:43;24.50;85.20
20498;DHT22;10407;53.238;10.448;2023-07-13T14:06:15;24.20;86.20
20498;DHT22;10407;53.238;10.448;2023-07-13T14:08:43;24.10;87.60
20498;DHT22;10407;53.238;10.448;2023-07-13T14:11:16;23.80;90.00
20498;DHT22;10407;53.238;10.448;2023-07-13T14:13:51;23.70;92.00
20498;DHT22;10407;53.238;10.448;2023-07-13T14:16:17;23.80;92.60
20498;DHT22;10407;53.238;10.448;2023-07-13T14:18:46;23.80;93.40
20498;DHT22;10407;53.238;10.448;2023-07-13T14:21:17;23.80;92.20
20498;DHT22;10407;53.238;10.448;2023-07-13T14:23:46;23.70;93.60
20498;DHT22;10407;53.238;10.448;2023-07-13T14:26:25;23.30;94.10
20498;DHT22;10407;53.238;10.448;2023-07-13T14:28:55;23.60;92.70
20498;DHT22;10407;53.238;10.448;2023-07-13T14:31:25;23.90;91.10
20498;DHT22;10407;53.238;10.448;2023-07-13T14:33:55;24.10;90.40
20498;DHT22;10407;53.238;10.448;2023-07-13T14:36:35;24.00;90.20
20498;DHT22;10407;53.238;10.448;2023-07-13T14:39:16;24.30;85.30
20498;DHT22;10407;53.238;10.448;2023-07-13T14:41:45;24.20;84.30
20498;DHT22;10407;53.238;10.448;2023-07-13T14:44:20;24.00;85.30
20498;DHT22;10407;53.238;10.448;2023-07-13T14:46:47;24.10;84.80
20498;DHT22;10407;53.238;10.448;2023-07-13T14:49:29;24.20;85.10
20498;DHT22;10407;53.238;10.448;2023-07-13T14:51:59;23.70;85.90
20498;DHT22;10407;53.238;10.448;2023-07-13T14:54:28;23.50;91.20
20498;DHT22;10407;53.238;10.448;2023-07-13T14:56:55;23.60;91.10
20498;DHT22;10407;53.238;10.448;2023-07-13T14:59:23;23.60;91.10
20498;DHT22;10407;53.238;10.448;2023-07-13T15:01:51;24.00;88.70
20498;DHT22;10407;53.238;10.448;2023-07-13T15:04:18;23.90;86.40
20498;DHT22;10407;53.238;10.448;2023-07-13T15:07:01;23.60;91.00
20498;DHT22;10407;53.238;10.448;2023-07-13T15:09:29;24.10;87.60
20498;DHT22;10407;53.238;10.448;2023-07-13T15:11:57;24.10;85.40
20498;DHT22;10407;53.238;10.448;2023-07-13T15:14:27;23.90;85.60
20498;DHT22;10407;53.238;10.448;2023-07-13T15:16:55;23.60;85.20
20498;DHT22;10407;53.238;10.448;2023-07-13T15:19:24;23.80;85.20
20498;DHT22;10407;53.238;10.448;2023-07-13T15:21:54;24.10;81.30
20498;DHT22;10407;53.238;10.448;2023-07-13T15:24:24;24.40;78.10
20498;DHT22;10407;53.238;10.448;2023-07-13T15:26:52;24.10;74.10
20498;DHT22;10407;53.238;10.448;2023-07-13T15:29:19;22.90;81.40
20498;DHT22;10407;53.238;10.448;2023-07-13T15:31:47;23.60;77.00
20498;DHT22;10407;53.238;10.448;2023-07-13T15:34:17;23.30;74.30
20498;DHT22;10407;53.238;10.448;2023-07-13T15:36:45;23.50;75.30
20498;DHT22;10407;53.238;10.448;2023-07-13T15:39:16;24.30;73.90
20498;DHT22;10407;53.238;10.448;2023-07-13T15:41:44;24.60;67.20
20498;DHT22;10407;53.238;10.448;2023-07-13T15:44:25;24.30;63.00
20498;DHT22;10407;53.238;10.448;2023-07-13T15:46:49;24.20;65.20
20498;DHT22;10407;53.238;10.448;2023-07-13T15:49:16;24.40;62.90
20498;DHT22;10407;53.238;10.448;2023-07-13T15:51:44;24.50;62.90
20498;DHT22;10407;53.238;10.448;2023-07-13T15:54:13;24.50;62.30
20498;DHT22;10407;53.238;10.448;2023-07-13T15:56:42;24.50;62.50
20498;DHT22;10407;53.238;10.448;2023-07-13T15:59:11;24.00;63.00
20498;DHT22;10407;53.238;10.448;2023-07-13T16:01:39;24.00;65.90
20498;DHT22;10407;53.238;10.448;2023-07-13T16:04:08;24.10;64.20
20498;DHT22;10407;53.238;10.448;2023-07-13T16:06:39;24.50;62.50
20498;DHT22;10407;53.238;10.448;2023-07-13T16:09:17;24.60;61.80
20498;DHT22;10407;53.238;10.448;2023-07-13T16:11:39;24.60;60.10